sensor_id;sensor_type;location;lat;lon;timestamp;P1;durP1;ratioP1;P2;durP2;ratioP2
65045;SDS011;54657;52.022;5.534;2023-08-01T00:01:29;3.67;;;2.10;;
65045;SDS011;54657;52.022;5.534;2023-08-01T00:03:54;4.57;;;2.30;;
65045;SDS011;54657;52.022;5.534;2023-08-01T00:06:20;6.47;;;2.08;;
65045;SDS011;54657;52.022;5.534;2023-08-01T00:08:47;2.28;;;1.65;;
65045;SDS011;54657;52.022;5.534;2023-08-01T00:11:13;5.28;;;2.35;;
65045;SDS011;54657;52.022;5.534;2023-08-01T00:13:39;3.33;;;2.00;;
65045;SDS011;54657;52.022;5.534;2023-08-01T00:16:05;4.78;;;2.03;;
65045;SDS011;54657;52.022;5.534;2023-08-01T00:18:31;3.05;;;1.83;;
65045;SDS011;54657;52.022;5.534;2023-08-01T00:20:56;2.70;;;1.75;;
65045;SDS011;54657;52.022;5.534;2023-08-01T00:23:23;5.28;;;1.90;;
65045;SDS011;54657;52.022;5.534;2023-08-01T00:25:49;4.05;;;2.00;;
65045;SDS011;54657;52.022;5.534;2023-08-01T00:28:19;2.60;;;1.75;;
65045;SDS011;54657;52.022;5.534;2023-08-01T00:30:48;2.15;;;1.75;;
65045;SDS011;54657;52.022;5.534;2023-08-01T00:33:14;5.25;;;1.58;;
65045;SDS011;54657;52.022;5.534;2023-08-01T00:35:40;4.40;;;1.88;;
65045;SDS011;54657;52.022;5.534;2023-08-01T00:38:05;3.55;;;2.03;;
65045;SDS011;54657;52.022;5.534;2023-08-01T00:40:31;2.92;;;1.60;;
65045;SDS011;54657;52.022;5.534;2023-08-01T00:42:58;3.92;;;2.03;;
65045;SDS011;54657;52.022;5.534;2023-08-01T00:45:24;2.75;;;1.88;;
65045;SDS011;54657;52.022;5.534;2023-08-01T00:47:53;4.18;;;1.92;;
65045;SDS011;54657;52.022;5.534;2023-08-01T00:50:20;2.90;;;1.80;;
65045;SDS011;54657;52.022;5.534;2023-08-01T00:52:47;2.53;;;1.58;;
65045;SDS011;54657;52.022;5.534;2023-08-01T00:55:14;4.95;;;2.15;;
65045;SDS011;54657;52.022;5.534;2023-08-01T00:57:40;3.80;;;2.20;;
65045;SDS011;54657;52.022;5.534;2023-08-01T01:00:07;4.45;;;2.15;;
65045;SDS011;54657;52.022;5.534;2023-08-01T01:02:33;3.97;;;2.50;;
65045;SDS011;54657;52.022;5.534;2023-08-01T01:05:00;8.63;;;2.97;;
65045;SDS011;54657;52.022;5.534;2023-08-01T01:07:27;4.80;;;2.78;;
65045;SDS011;54657;52.022;5.534;2023-08-01T01:09:53;4.05;;;2.85;;
65045;SDS011;54657;52.022;5.534;2023-08-01T01:12:19;5.45;;;3.53;;
65045;SDS011;54657;52.022;5.534;2023-08-01T01:14:45;6.25;;;3.25;;
65045;SDS011;54657;52.022;5.534;2023-08-01T01:17:10;3.70;;;2.88;;
65045;SDS011;54657;52.022;5.534;2023-08-01T01:19:36;5.20;;;3.20;;
65045;SDS011;54657;52.022;5.534;2023-08-01T01:22:02;8.18;;;3.40;;
65045;SDS011;54657;52.022;5.534;2023-08-01T01:24:29;6.05;;;3.00;;
65045;SDS011;54657;52.022;5.534;2023-08-01T01:26:57;4.43;;;3.35;;
65045;SDS011;54657;52.022;5.534;2023-08-01T01:29:25;7.82;;;3.53;;
65045;SDS011;54657;52.022;5.534;2023-08-01T01:31:52;3.42;;;3.10;;
65045;SDS011;54657;52.022;5.534;2023-08-01T01:34:18;5.13;;;3.70;;
65045;SDS011;54657;52.022;5.534;2023-08-01T01:36:44;4.55;;;3.10;;
65045;SDS011;54657;52.022;5.534;2023-08-01T01:39:09;5.80;;;3.55;;
65045;SDS011;54657;52.022;5.534;2023-08-01T01:41:35;6.78;;;3.78;;
65045;SDS011;54657;52.022;5.534;2023-08-01T01:44:01;5.07;;;3.53;;
65045;SDS011;54657;52.022;5.534;2023-08-01T01:46:26;4.15;;;2.83;;
65045;SDS011;54657;52.022;5.534;2023-08-01T01:48:52;5.10;;;3.03;;
65045;SDS011;54657;52.022;5.534;2023-08-01T01:51:19;6.82;;;3.42;;
65045;SDS011;54657;52.022;5.534;2023-08-01T01:53:46;8.13;;;3.55;;
65045;SDS011;54657;52.022;5.534;2023-08-01T01:56:12;6.68;;;3.42;;
65045;SDS011;54657;52.022;5.534;2023-08-01T01:58:37;7.93;;;3.75;;
65045;SDS011;54657;52.022;5.534;2023-08-01T02:01:03;7.22;;;3.88;;
65045;SDS011;54657;52.022;5.534;2023-08-01T02:03:28;8.45;;;4.10;;
65045;SDS011;54657;52.022;5.534;2023-08-01T02:05:54;6.60;;;3.30;;
65045;SDS011;54657;52.022;5.534;2023-08-01T02:08:19;8.25;;;3.47;;
65045;SDS011;54657;52.022;5.534;2023-08-01T02:10:45;7.28;;;3.90;;
65045;SDS011;54657;52.022;5.534;2023-08-01T02:13:10;6.20;;;3.50;;
65045;SDS011;54657;52.022;5.534;2023-08-01T02:15:36;6.18;;;3.47;;
65045;SDS011;54657;52.022;5.534;2023-08-01T02:18:02;5.70;;;3.72;;
65045;SDS011;54657;52.022;5.534;2023-08-01T02:20:27;6.47;;;3.55;;
65045;SDS011;54657;52.022;5.534;2023-08-01T02:22:54;8.68;;;3.70;;
65045;SDS011;54657;52.022;5.534;2023-08-01T02:25:19;6.63;;;3.65;;
65045;SDS011;54657;52.022;5.534;2023-08-01T02:27:45;9.98;;;3.80;;
65045;SDS011;54657;52.022;5.534;2023-08-01T02:30:10;6.55;;;3.55;;
65045;SDS011;54657;52.022;5.534;2023-08-01T02:32:36;8.52;;;3.30;;
65045;SDS011;54657;52.022;5.534;2023-08-01T02:35:02;7.55;;;3.25;;
65045;SDS011;54657;52.022;5.534;2023-08-01T02:37:27;8.18;;;3.70;;
65045;SDS011;54657;52.022;5.534;2023-08-01T02:39:53;10.68;;;3.67;;
65045;SDS011;54657;52.022;5.534;2023-08-01T02:42:18;8.32;;;3.55;;
65045;SDS011;54657;52.022;5.534;2023-08-01T02:44:44;9.63;;;3.80;;
65045;SDS011;54657;52.022;5.534;2023-08-01T02:47:10;12.02;;;3.88;;
65045;SDS011;54657;52.022;5.534;2023-08-01T02:49:35;5.97;;;3.30;;
65045;SDS011;54657;52.022;5.534;2023-08-01T02:52:01;11.25;;;3.53;;
65045;SDS011;54657;52.022;5.534;2023-08-01T02:54:26;9.88;;;3.35;;
65045;SDS011;54657;52.022;5.534;2023-08-01T02:56:52;10.52;;;3.40;;
65045;SDS011;54657;52.022;5.534;2023-08-01T02:59:17;9.82;;;3.63;;
65045;SDS011;54657;52.022;5.534;2023-08-01T03:01:43;9.85;;;3.70;;
65045;SDS011;54657;52.022;5.534;2023-08-01T03:04:09;5.97;;;3.10;;
65045;SDS011;54657;52.022;5.534;2023-08-01T03:06:37;6.65;;;3.25;;
65045;SDS011;54657;52.022;5.534;2023-08-01T03:09:03;7.68;;;3.08;;
65045;SDS011;54657;52.022;5.534;2023-08-01T03:11:32;5.68;;;2.78;;
65045;SDS011;54657;52.022;5.534;2023-08-01T03:14:00;8.90;;;3.08;;
65045;SDS011;54657;52.022;5.534;2023-08-01T03:16:25;7.45;;;2.92;;
65045;SDS011;54657;52.022;5.534;2023-08-01T03:18:51;6.55;;;2.80;;
65045;SDS011;54657;52.022;5.534;2023-08-01T03:21:17;7.28;;;2.50;;
65045;SDS011;54657;52.022;5.534;2023-08-01T03:23:42;10.07;;;3.30;;
65045;SDS011;54657;52.022;5.534;2023-08-01T03:26:08;7.72;;;2.78;;
65045;SDS011;54657;52.022;5.534;2023-08-01T03:28:33;8.80;;;3.03;;
65045;SDS011;54657;52.022;5.534;2023-08-01T03:30:59;10.50;;;3.13;;
65045;SDS011;54657;52.022;5.534;2023-08-01T03:33:25;7.28;;;2.97;;
65045;SDS011;54657;52.022;5.534;2023-08-01T03:35:51;8.43;;;2.72;;
65045;SDS011;54657;52.022;5.534;2023-08-01T03:38:16;6.70;;;2.45;;
65045;SDS011;54657;52.022;5.534;2023-08-01T03:40:42;6.82;;;2.83;;
65045;SDS011;54657;52.022;5.534;2023-08-01T03:43:08;8.02;;;2.95;;
65045;SDS011;54657;52.022;5.534;2023-08-01T03:45:34;9.68;;;2.83;;
65045;SDS011;54657;52.022;5.534;2023-08-01T03:48:00;8.57;;;2.90;;
65045;SDS011;54657;52.022;5.534;2023-08-01T03:50:26;8.02;;;2.72;;
65045;SDS011;54657;52.022;5.534;2023-08-01T03:52:51;7.47;;;3.08;;
65045;SDS011;54657;52.022;5.534;2023-08-01T03:55:17;5.10;;;2.42;;
65045;SDS011;54657;52.022;5.534;2023-08-01T03:57:42;8.18;;;2.88;;
65045;SDS011;54657;52.022;5.534;2023-08-01T04:00:08;6.47;;;2.90;;
65045;SDS011;54657;52.022;5.534;2023-08-01T04:02:43;10.02;;;3.10;;
65045;SDS011;54657;52.022;5.534;2023-08-01T04:05:09;6.97;;;2.60;;
65045;SDS011;54657;52.022;5.534;2023-08-01T04:07:35;7.03;;;3.03;;
65045;SDS011;54657;52.022;5.534;2023-08-01T04:10:02;8.57;;;2.78;;
65045;SDS011;54657;52.022;5.534;2023-08-01T04:12:28;7.28;;;2.67;;
65045;SDS011;54657;52.022;5.534;2023-08-01T04:14:55;5.28;;;2.70;;
65045;SDS011;54657;52.022;5.534;2023-08-01T04:17:20;9.35;;;3.45;;
65045;SDS011;54657;52.022;5.534;2023-08-01T04:19:46;5.47;;;2.75;;
65045;SDS011;54657;52.022;5.534;2023-08-01T04:22:11;7.90;;;3.08;;
65045;SDS011;54657;52.022;5.534;2023-08-01T04:24:37;6.55;;;3.10;;
65045;SDS011;54657;52.022;5.534;2023-08-01T04:27:02;8.43;;;3.45;;
65045;SDS011;54657;52.022;5.534;2023-08-01T04:29:28;9.63;;;3.08;;
65045;SDS011;54657;52.022;5.534;2023-08-01T04:31:54;9.05;;;3.55;;
65045;SDS011;54657;52.022;5.534;2023-08-01T04:34:19;7.97;;;3.55;;
65045;SDS011;54657;52.022;5.534;2023-08-01T04:36:45;6.82;;;3.15;;
65045;SDS011;54657;52.022;5.534;2023-08-01T04:39:11;8.63;;;3.40;;
65045;SDS011;54657;52.022;5.534;2023-08-01T04:41:36;6.78;;;2.88;;
65045;SDS011;54657;52.022;5.534;2023-08-01T04:44:02;10.65;;;3.08;;
65045;SDS011;54657;52.022;5.534;2023-08-01T04:46:27;8.07;;;2.88;;
65045;SDS011;54657;52.022;5.534;2023-08-01T04:48:53;8.98;;;3.78;;
65045;SDS011;54657;52.022;5.534;2023-08-01T04:51:19;8.02;;;3.33;;
65045;SDS011;54657;52.022;5.534;2023-08-01T04:53:44;9.32;;;2.95;;
65045;SDS011;54657;52.022;5.534;2023-08-01T04:56:10;10.32;;;3.08;;
65045;SDS011;54657;52.022;5.534;2023-08-01T04:58:35;8.98;;;3.40;;
65045;SDS011;54657;52.022;5.534;2023-08-01T05:01:01;9.82;;;3.55;;
65045;SDS011;54657;52.022;5.534;2023-08-01T05:03:26;9.30;;;3.28;;
65045;SDS011;54657;52.022;5.534;2023-08-01T05:05:52;7.47;;;2.90;;
65045;SDS011;54657;52.022;5.534;2023-08-01T05:08:17;9.27;;;3.05;;
65045;SDS011;54657;52.022;5.534;2023-08-01T05:10:43;8.00;;;3.35;;
65045;SDS011;54657;52.022;5.534;2023-08-01T05:13:09;7.47;;;2.92;;
65045;SDS011;54657;52.022;5.534;2023-08-01T05:15:34;8.38;;;3.63;;
65045;SDS011;54657;52.022;5.534;2023-08-01T05:18:00;9.18;;;3.17;;
65045;SDS011;54657;52.022;5.534;2023-08-01T05:20:25;11.95;;;3.90;;
65045;SDS011;54657;52.022;5.534;2023-08-01T05:22:55;8.73;;;3.38;;
65045;SDS011;54657;52.022;5.534;2023-08-01T05:25:24;10.00;;;4.05;;
65045;SDS011;54657;52.022;5.534;2023-08-01T05:27:50;7.47;;;3.47;;
65045;SDS011;54657;52.022;5.534;2023-08-01T05:30:15;7.70;;;3.60;;
65045;SDS011;54657;52.022;5.534;2023-08-01T05:32:41;9.55;;;4.45;;
65045;SDS011;54657;52.022;5.534;2023-08-01T05:35:09;11.38;;;3.45;;
65045;SDS011;54657;52.022;5.534;2023-08-01T05:37:35;6.85;;;3.75;;
65045;SDS011;54657;52.022;5.534;2023-08-01T05:40:02;5.78;;;3.70;;
65045;SDS011;54657;52.022;5.534;2023-08-01T05:42:28;5.70;;;3.15;;
65045;SDS011;54657;52.022;5.534;2023-08-01T05:44:54;7.97;;;3.10;;
65045;SDS011;54657;52.022;5.534;2023-08-01T05:47:19;9.88;;;3.55;;
65045;SDS011;54657;52.022;5.534;2023-08-01T05:49:47;9.52;;;3.40;;
65045;SDS011;54657;52.022;5.534;2023-08-01T05:52:13;11.10;;;3.30;;
65045;SDS011;54657;52.022;5.534;2023-08-01T05:54:38;7.88;;;3.60;;
65045;SDS011;54657;52.022;5.534;2023-08-01T05:57:04;8.80;;;3.60;;
65045;SDS011;54657;52.022;5.534;2023-08-01T05:59:30;8.35;;;3.60;;
65045;SDS011;54657;52.022;5.534;2023-08-01T06:01:56;7.55;;;3.47;;
65045;SDS011;54657;52.022;5.534;2023-08-01T06:04:21;8.20;;;3.60;;
65045;SDS011;54657;52.022;5.534;2023-08-01T06:06:47;11.57;;;3.20;;
65045;SDS011;54657;52.022;5.534;2023-08-01T06:09:13;10.38;;;3.38;;
65045;SDS011;54657;52.022;5.534;2023-08-01T06:11:38;9.00;;;3.53;;
65045;SDS011;54657;52.022;5.534;2023-08-01T06:14:04;9.80;;;3.40;;
65045;SDS011;54657;52.022;5.534;2023-08-01T06:16:30;7.22;;;3.25;;
65045;SDS011;54657;52.022;5.534;2023-08-01T06:18:55;12.77;;;3.90;;
65045;SDS011;54657;52.022;5.534;2023-08-01T06:21:21;12.55;;;3.40;;
65045;SDS011;54657;52.022;5.534;2023-08-01T06:23:47;7.50;;;3.22;;
65045;SDS011;54657;52.022;5.534;2023-08-01T06:26:12;10.05;;;3.80;;
65045;SDS011;54657;52.022;5.534;2023-08-01T06:28:40;8.55;;;3.20;;
65045;SDS011;54657;52.022;5.534;2023-08-01T06:31:06;7.38;;;3.13;;
65045;SDS011;54657;52.022;5.534;2023-08-01T06:33:31;7.72;;;3.40;;
65045;SDS011;54657;52.022;5.534;2023-08-01T06:35:57;8.98;;;2.92;;
65045;SDS011;54657;52.022;5.534;2023-08-01T06:38:23;10.65;;;3.40;;
65045;SDS011;54657;52.022;5.534;2023-08-01T06:40:48;7.03;;;3.03;;
65045;SDS011;54657;52.022;5.534;2023-08-01T06:43:14;7.90;;;3.38;;
65045;SDS011;54657;52.022;5.534;2023-08-01T06:45:39;5.20;;;2.60;;
65045;SDS011;54657;52.022;5.534;2023-08-01T06:48:05;10.02;;;3.30;;
65045;SDS011;54657;52.022;5.534;2023-08-01T06:50:30;7.45;;;2.97;;
65045;SDS011;54657;52.022;5.534;2023-08-01T06:52:56;8.30;;;3.33;;
65045;SDS011;54657;52.022;5.534;2023-08-01T06:55:22;7.55;;;3.10;;
65045;SDS011;54657;52.022;5.534;2023-08-01T06:57:47;8.35;;;2.72;;
65045;SDS011;54657;52.022;5.534;2023-08-01T07:00:13;11.57;;;3.22;;
65045;SDS011;54657;52.022;5.534;2023-08-01T07:02:39;8.30;;;2.92;;
65045;SDS011;54657;52.022;5.534;2023-08-01T07:05:04;7.70;;;2.70;;
65045;SDS011;54657;52.022;5.534;2023-08-01T07:07:30;8.77;;;2.63;;
65045;SDS011;54657;52.022;5.534;2023-08-01T07:09:56;7.88;;;2.80;;
65045;SDS011;54657;52.022;5.534;2023-08-01T07:12:21;10.85;;;3.08;;
65045;SDS011;54657;52.022;5.534;2023-08-01T07:14:47;6.90;;;2.75;;
65045;SDS011;54657;52.022;5.534;2023-08-01T07:17:12;9.07;;;2.75;;
65045;SDS011;54657;52.022;5.534;2023-08-01T07:19:38;7.40;;;2.92;;
65045;SDS011;54657;52.022;5.534;2023-08-01T07:22:03;6.25;;;2.30;;
65045;SDS011;54657;52.022;5.534;2023-08-01T07:24:29;6.40;;;2.95;;
65045;SDS011;54657;52.022;5.534;2023-08-01T07:26:55;6.50;;;2.55;;
65045;SDS011;54657;52.022;5.534;2023-08-01T07:29:20;9.90;;;2.75;;
65045;SDS011;54657;52.022;5.534;2023-08-01T07:31:46;6.68;;;3.00;;
65045;SDS011;54657;52.022;5.534;2023-08-01T07:34:11;4.72;;;1.90;;
65045;SDS011;54657;52.022;5.534;2023-08-01T07:36:37;8.25;;;2.72;;
65045;SDS011;54657;52.022;5.534;2023-08-01T07:39:03;7.40;;;2.47;;
65045;SDS011;54657;52.022;5.534;2023-08-01T07:41:29;2.97;;;2.03;;
65045;SDS011;54657;52.022;5.534;2023-08-01T07:43:54;7.13;;;2.72;;
65045;SDS011;54657;52.022;5.534;2023-08-01T07:46:20;5.53;;;2.08;;
65045;SDS011;54657;52.022;5.534;2023-08-01T07:48:46;6.72;;;2.47;;
65045;SDS011;54657;52.022;5.534;2023-08-01T07:51:11;4.70;;;2.15;;
65045;SDS011;54657;52.022;5.534;2023-08-01T07:53:37;5.43;;;2.15;;
65045;SDS011;54657;52.022;5.534;2023-08-01T07:56:03;5.05;;;2.22;;
65045;SDS011;54657;52.022;5.534;2023-08-01T07:58:31;5.22;;;2.38;;
65045;SDS011;54657;52.022;5.534;2023-08-01T08:00:57;6.60;;;2.45;;
65045;SDS011;54657;52.022;5.534;2023-08-01T08:03:28;6.30;;;2.25;;
65045;SDS011;54657;52.022;5.534;2023-08-01T08:05:53;8.25;;;2.50;;
65045;SDS011;54657;52.022;5.534;2023-08-01T08:08:19;6.18;;;2.10;;
65045;SDS011;54657;52.022;5.534;2023-08-01T08:10:44;6.15;;;2.30;;
65045;SDS011;54657;52.022;5.534;2023-08-01T08:13:10;9.13;;;2.70;;
65045;SDS011;54657;52.022;5.534;2023-08-01T08:15:36;4.13;;;2.17;;
65045;SDS011;54657;52.022;5.534;2023-08-01T08:18:01;5.63;;;2.00;;
65045;SDS011;54657;52.022;5.534;2023-08-01T08:20:29;6.00;;;2.40;;
65045;SDS011;54657;52.022;5.534;2023-08-01T08:22:55;5.68;;;2.15;;
65045;SDS011;54657;52.022;5.534;2023-08-01T08:25:21;3.40;;;1.63;;
65045;SDS011;54657;52.022;5.534;2023-08-01T08:27:48;5.55;;;2.13;;
65045;SDS011;54657;52.022;5.534;2023-08-01T08:30:14;6.82;;;2.15;;
65045;SDS011;54657;52.022;5.534;2023-08-01T08:32:40;8.55;;;3.03;;
65045;SDS011;54657;52.022;5.534;2023-08-01T08:35:05;5.82;;;1.95;;
65045;SDS011;54657;52.022;5.534;2023-08-01T08:37:31;4.63;;;2.17;;
65045;SDS011;54657;52.022;5.534;2023-08-01T08:39:57;5.80;;;1.92;;
65045;SDS011;54657;52.022;5.534;2023-08-01T08:42:22;5.32;;;1.92;;
65045;SDS011;54657;52.022;5.534;2023-08-01T08:44:49;9.30;;;2.30;;
65045;SDS011;54657;52.022;5.534;2023-08-01T08:47:19;8.70;;;2.05;;
65045;SDS011;54657;52.022;5.534;2023-08-01T08:49:49;3.22;;;1.70;;
65045;SDS011;54657;52.022;5.534;2023-08-01T08:52:15;5.82;;;1.83;;
65045;SDS011;54657;52.022;5.534;2023-08-01T08:54:41;5.10;;;2.30;;
65045;SDS011;54657;52.022;5.534;2023-08-01T08:57:07;5.90;;;1.90;;
65045;SDS011;54657;52.022;5.534;2023-08-01T08:59:33;4.95;;;1.80;;
65045;SDS011;54657;52.022;5.534;2023-08-01T09:02:01;2.92;;;1.48;;
65045;SDS011;54657;52.022;5.534;2023-08-01T09:04:28;3.33;;;1.52;;
65045;SDS011;54657;52.022;5.534;2023-08-01T09:06:55;5.35;;;1.70;;
65045;SDS011;54657;52.022;5.534;2023-08-01T09:09:27;5.07;;;1.88;;
65045;SDS011;54657;52.022;5.534;2023-08-01T09:11:53;3.78;;;1.77;;
65045;SDS011;54657;52.022;5.534;2023-08-01T09:14:22;9.25;;;1.70;;
65045;SDS011;54657;52.022;5.534;2023-08-01T09:16:48;5.65;;;1.98;;
65045;SDS011;54657;52.022;5.534;2023-08-01T09:19:17;3.60;;;1.55;;
65045;SDS011;54657;52.022;5.534;2023-08-01T09:21:44;4.18;;;2.15;;
65045;SDS011;54657;52.022;5.534;2023-08-01T09:24:11;3.15;;;1.50;;
65045;SDS011;54657;52.022;5.534;2023-08-01T09:26:39;5.45;;;1.80;;
65045;SDS011;54657;52.022;5.534;2023-08-01T09:29:05;5.22;;;1.98;;
65045;SDS011;54657;52.022;5.534;2023-08-01T09:31:38;5.18;;;1.90;;
65045;SDS011;54657;52.022;5.534;2023-08-01T09:34:05;5.38;;;2.30;;
65045;SDS011;54657;52.022;5.534;2023-08-01T09:36:43;4.00;;;1.70;;
65045;SDS011;54657;52.022;5.534;2023-08-01T09:39:09;4.78;;;1.60;;
65045;SDS011;54657;52.022;5.534;2023-08-01T09:41:44;4.28;;;1.60;;
65045;SDS011;54657;52.022;5.534;2023-08-01T09:44:11;6.20;;;1.67;;
65045;SDS011;54657;52.022;5.534;2023-08-01T09:46:41;5.78;;;1.55;;
65045;SDS011;54657;52.022;5.534;2023-08-01T09:49:12;5.93;;;2.03;;
65045;SDS011;54657;52.022;5.534;2023-08-01T09:51:48;6.20;;;1.92;;
65045;SDS011;54657;52.022;5.534;2023-08-01T09:54:15;2.97;;;1.50;;
65045;SDS011;54657;52.022;5.534;2023-08-01T09:56:41;6.32;;;1.90;;
65045;SDS011;54657;52.022;5.534;2023-08-01T10:01:41;5.25;;;1.65;;
65045;SDS011;54657;52.022;5.534;2023-08-01T10:04:09;5.60;;;2.00;;
65045;SDS011;54657;52.022;5.534;2023-08-01T10:06:37;4.55;;;1.83;;
65045;SDS011;54657;52.022;5.534;2023-08-01T10:09:06;4.18;;;1.92;;
65045;SDS011;54657;52.022;5.534;2023-08-01T10:11:35;6.45;;;1.98;;
65045;SDS011;54657;52.022;5.534;2023-08-01T10:14:04;4.85;;;1.65;;
65045;SDS011;54657;52.022;5.534;2023-08-01T10:16:31;5.25;;;1.58;;
65045;SDS011;54657;52.022;5.534;2023-08-01T10:18:58;5.78;;;1.80;;
65045;SDS011;54657;52.022;5.534;2023-08-01T10:21:25;2.15;;;1.67;;
65045;SDS011;54657;52.022;5.534;2023-08-01T10:23:52;2.45;;;1.30;;
65045;SDS011;54657;52.022;5.534;2023-08-01T10:26:19;4.90;;;1.45;;
65045;SDS011;54657;52.022;5.534;2023-08-01T10:28:51;5.18;;;1.70;;
65045;SDS011;54657;52.022;5.534;2023-08-01T10:33:44;4.20;;;1.50;;
65045;SDS011;54657;52.022;5.534;2023-08-01T10:36:18;6.53;;;1.98;;
65045;SDS011;54657;52.022;5.534;2023-08-01T10:38:44;3.08;;;1.60;;
65045;SDS011;54657;52.022;5.534;2023-08-01T10:41:28;7.70;;;2.33;;
65045;SDS011;54657;52.022;5.534;2023-08-01T10:46:44;4.28;;;1.77;;
65045;SDS011;54657;52.022;5.534;2023-08-01T10:49:10;2.63;;;1.48;;
65045;SDS011;54657;52.022;5.534;2023-08-01T10:51:35;5.85;;;1.55;;
65045;SDS011;54657;52.022;5.534;2023-08-01T10:54:01;4.22;;;1.40;;
65045;SDS011;54657;52.022;5.534;2023-08-01T10:56:27;6.53;;;1.80;;
65045;SDS011;54657;52.022;5.534;2023-08-01T10:58:54;4.97;;;1.75;;
65045;SDS011;54657;52.022;5.534;2023-08-01T11:01:19;3.45;;;1.38;;
65045;SDS011;54657;52.022;5.534;2023-08-01T11:03:45;3.78;;;1.50;;
65045;SDS011;54657;52.022;5.534;2023-08-01T11:06:10;4.00;;;1.83;;
65045;SDS011;54657;52.022;5.534;2023-08-01T11:08:37;3.42;;;1.52;;
65045;SDS011;54657;52.022;5.534;2023-08-01T11:11:08;5.20;;;1.70;;
65045;SDS011;54657;52.022;5.534;2023-08-01T11:13:36;4.45;;;1.50;;
65045;SDS011;54657;52.022;5.534;2023-08-01T11:16:05;4.35;;;1.58;;
65045;SDS011;54657;52.022;5.534;2023-08-01T11:18:42;4.70;;;1.55;;
65045;SDS011;54657;52.022;5.534;2023-08-01T11:21:07;3.10;;;1.50;;
65045;SDS011;54657;52.022;5.534;2023-08-01T11:23:33;6.07;;;1.52;;
65045;SDS011;54657;52.022;5.534;2023-08-01T11:26:01;3.60;;;1.30;;
65045;SDS011;54657;52.022;5.534;2023-08-01T11:28:33;3.42;;;1.67;;
65045;SDS011;54657;52.022;5.534;2023-08-01T11:30:59;2.45;;;1.42;;
65045;SDS011;54657;52.022;5.534;2023-08-01T11:33:24;4.85;;;1.70;;
65045;SDS011;54657;52.022;5.534;2023-08-01T11:35:54;3.22;;;1.30;;
65045;SDS011;54657;52.022;5.534;2023-08-01T11:38:28;2.88;;;1.67;;
65045;SDS011;54657;52.022;5.534;2023-08-01T11:40:56;3.38;;;1.30;;
65045;SDS011;54657;52.022;5.534;2023-08-01T11:43:22;3.08;;;1.45;;
65045;SDS011;54657;52.022;5.534;2023-08-01T11:45:51;3.65;;;1.52;;
65045;SDS011;54657;52.022;5.534;2023-08-01T11:48:20;5.30;;;1.70;;
65045;SDS011;54657;52.022;5.534;2023-08-01T11:50:47;3.22;;;1.30;;
65045;SDS011;54657;52.022;5.534;2023-08-01T11:53:19;4.82;;;1.27;;
65045;SDS011;54657;52.022;5.534;2023-08-01T11:55:46;3.63;;;1.50;;
65045;SDS011;54657;52.022;5.534;2023-08-01T11:58:12;5.63;;;1.73;;
65045;SDS011;54657;52.022;5.534;2023-08-01T12:00:39;5.22;;;1.70;;
65045;SDS011;54657;52.022;5.534;2023-08-01T12:03:09;6.07;;;1.63;;
65045;SDS011;54657;52.022;5.534;2023-08-01T12:05:41;6.05;;;1.58;;
65045;SDS011;54657;52.022;5.534;2023-08-01T12:08:11;5.75;;;1.60;;
65045;SDS011;54657;52.022;5.534;2023-08-01T12:10:41;3.55;;;1.48;;
65045;SDS011;54657;52.022;5.534;2023-08-01T12:13:21;7.65;;;1.40;;
65045;SDS011;54657;52.022;5.534;2023-08-01T12:15:50;5.55;;;1.70;;
65045;SDS011;54657;52.022;5.534;2023-08-01T12:20:50;6.88;;;1.50;;
65045;SDS011;54657;52.022;5.534;2023-08-01T12:23:16;4.57;;;1.40;;
65045;SDS011;54657;52.022;5.534;2023-08-01T12:25:42;5.47;;;1.52;;
65045;SDS011;54657;52.022;5.534;2023-08-01T12:28:08;4.18;;;1.40;;
65045;SDS011;54657;52.022;5.534;2023-08-01T12:30:33;7.00;;;2.20;;
65045;SDS011;54657;52.022;5.534;2023-08-01T12:32:59;2.58;;;1.73;;
65045;SDS011;54657;52.022;5.534;2023-08-01T12:35:25;4.68;;;1.77;;
65045;SDS011;54657;52.022;5.534;2023-08-01T12:37:52;4.45;;;1.52;;
65045;SDS011;54657;52.022;5.534;2023-08-01T12:40:18;4.22;;;1.50;;
65045;SDS011;54657;52.022;5.534;2023-08-01T12:42:44;5.80;;;1.70;;
65045;SDS011;54657;52.022;5.534;2023-08-01T12:45:10;8.73;;;1.80;;
65045;SDS011;54657;52.022;5.534;2023-08-01T12:47:35;4.57;;;1.50;;
65045;SDS011;54657;52.022;5.534;2023-08-01T12:50:01;7.10;;;2.22;;
65045;SDS011;54657;52.022;5.534;2023-08-01T12:52:26;6.10;;;1.83;;
65045;SDS011;54657;52.022;5.534;2023-08-01T12:54:52;5.70;;;1.45;;
65045;SDS011;54657;52.022;5.534;2023-08-01T12:57:18;7.55;;;1.85;;
65045;SDS011;54657;52.022;5.534;2023-08-01T12:59:44;5.55;;;1.70;;
65045;SDS011;54657;52.022;5.534;2023-08-01T13:02:09;1.80;;;1.23;;
65045;SDS011;54657;52.022;5.534;2023-08-01T13:04:35;6.82;;;2.08;;
65045;SDS011;54657;52.022;5.534;2023-08-01T13:07:01;4.72;;;1.30;;
65045;SDS011;54657;52.022;5.534;2023-08-01T13:09:26;3.50;;;1.33;;
65045;SDS011;54657;52.022;5.534;2023-08-01T13:11:52;4.35;;;1.33;;
65045;SDS011;54657;52.022;5.534;2023-08-01T13:14:18;4.13;;;1.17;;
65045;SDS011;54657;52.022;5.534;2023-08-01T13:16:43;3.60;;;1.60;;
65045;SDS011;54657;52.022;5.534;2023-08-01T13:19:09;4.18;;;1.73;;
65045;SDS011;54657;52.022;5.534;2023-08-01T13:21:35;5.28;;;1.58;;
65045;SDS011;54657;52.022;5.534;2023-08-01T13:24:00;6.38;;;1.85;;
65045;SDS011;54657;52.022;5.534;2023-08-01T13:26:30;4.93;;;1.58;;
65045;SDS011;54657;52.022;5.534;2023-08-01T13:28:56;3.05;;;1.60;;
65045;SDS011;54657;52.022;5.534;2023-08-01T13:31:23;4.03;;;1.40;;
65045;SDS011;54657;52.022;5.534;2023-08-01T13:33:48;4.20;;;1.25;;
65045;SDS011;54657;52.022;5.534;2023-08-01T13:36:14;4.28;;;1.30;;
65045;SDS011;54657;52.022;5.534;2023-08-01T13:38:40;4.60;;;1.48;;
65045;SDS011;54657;52.022;5.534;2023-08-01T13:41:05;7.30;;;1.60;;
65045;SDS011;54657;52.022;5.534;2023-08-01T13:43:31;3.72;;;1.38;;
65045;SDS011;54657;52.022;5.534;2023-08-01T13:45:56;2.58;;;1.30;;
65045;SDS011;54657;52.022;5.534;2023-08-01T13:48:22;4.82;;;1.30;;
65045;SDS011;54657;52.022;5.534;2023-08-01T13:50:48;5.28;;;1.50;;
65045;SDS011;54657;52.022;5.534;2023-08-01T13:53:13;3.45;;;1.20;;
65045;SDS011;54657;52.022;5.534;2023-08-01T13:55:39;5.10;;;1.42;;
65045;SDS011;54657;52.022;5.534;2023-08-01T13:58:05;2.72;;;1.20;;
65045;SDS011;54657;52.022;5.534;2023-08-01T14:00:31;2.65;;;1.42;;
65045;SDS011;54657;52.022;5.534;2023-08-01T14:02:57;3.13;;;1.30;;
65045;SDS011;54657;52.022;5.534;2023-08-01T14:05:26;4.55;;;1.17;;
65045;SDS011;54657;52.022;5.534;2023-08-01T14:07:52;4.78;;;1.40;;
65045;SDS011;54657;52.022;5.534;2023-08-01T14:10:18;5.57;;;1.20;;
65045;SDS011;54657;52.022;5.534;2023-08-01T14:12:44;2.20;;;1.20;;
65045;SDS011;54657;52.022;5.534;2023-08-01T14:15:09;3.00;;;1.40;;
65045;SDS011;54657;52.022;5.534;2023-08-01T14:17:36;3.80;;;1.50;;
65045;SDS011;54657;52.022;5.534;2023-08-01T14:20:03;6.10;;;1.48;;
65045;SDS011;54657;52.022;5.534;2023-08-01T14:22:29;3.35;;;1.48;;
65045;SDS011;54657;52.022;5.534;2023-08-01T14:24:55;3.40;;;1.40;;
65045;SDS011;54657;52.022;5.534;2023-08-01T14:27:21;3.58;;;1.20;;
65045;SDS011;54657;52.022;5.534;2023-08-01T14:29:47;7.32;;;1.42;;
65045;SDS011;54657;52.022;5.534;2023-08-01T14:32:12;3.58;;;1.40;;
65045;SDS011;54657;52.022;5.534;2023-08-01T14:34:39;3.33;;;1.65;;
65045;SDS011;54657;52.022;5.534;2023-08-01T14:37:04;4.85;;;1.95;;
65045;SDS011;54657;52.022;5.534;2023-08-01T14:39:30;3.72;;;1.42;;
65045;SDS011;54657;52.022;5.534;2023-08-01T14:41:55;3.55;;;1.60;;
65045;SDS011;54657;52.022;5.534;2023-08-01T14:44:21;4.05;;;1.42;;
65045;SDS011;54657;52.022;5.534;2023-08-01T14:46:47;5.20;;;1.40;;
65045;SDS011;54657;52.022;5.534;2023-08-01T14:49:12;6.88;;;1.50;;
65045;SDS011;54657;52.022;5.534;2023-08-01T14:51:38;4.97;;;1.70;;
65045;SDS011;54657;52.022;5.534;2023-08-01T14:54:03;8.80;;;1.60;;